Time;durP1;ratioP1;P1;durP2;ratioP2;P2;SDS_P1;SDS_P2;PMS_P1;PMS_P2;Temp;Humidity;BMP_temperature;BMP_pressure;BME280_temperature;BME280_humidity;BME280_pressure;Samples;Min_cycle;Max_cycle;Signal;HPM_P1;HPM_P2
2022/08/02 00:02:02;;;;;;;7.68;4.97;;;23.20;99.90;;;;;;5072810;28;20047;-46
2022/08/02 00:04:28;;;;;;;13.40;6.13;;;23.20;99.90;;;;;;5056996;28;20503;-50
2022/08/02 00:06:54;;;;;;;6.85;5.00;;;;;;;;;;5092267;28;20020;-52
2022/08/02 00:09:20;;;;;;;5.95;5.38;;;23.00;99.90;;;;;;5068508;28;20048;-49
2022/08/02 00:11:46;;;;;;;6.72;4.80;;;23.00;99.90;;;;;;5031339;28;20059;-49
2022/08/02 00:14:12;;;;;;;8.00;6.13;;;;;;;;;;5091745;28;20806;-47
2022/08/02 00:16:38;;;;;;;10.38;7.47;;;23.00;99.90;;;;;;5092220;28;20034;-51
2022/08/02 00:19:04;;;;;;;7.63;6.43;;;23.00;99.90;;;;;;5092281;28;20047;-48
2022/08/02 00:21:30;;;;;;;11.35;8.02;;;23.10;99.90;;;;;;5056017;28;20032;-53
2022/08/02 00:23:55;;;;;;;7.38;6.18;;;23.00;99.90;;;;;;5091991;28;20455;-53
2022/08/02 00:26:21;;;;;;;8.98;5.70;;;;;;;;;;5090105;28;20020;-47
2022/08/02 00:28:47;;;;;;;8.18;5.55;;;22.90;99.90;;;;;;5092709;28;20059;-50
2022/08/02 00:31:13;;;;;;;8.90;5.43;;;22.90;99.90;;;;;;5091489;28;20603;-50
2022/08/02 00:33:39;;;;;;;14.15;7.28;;;22.80;99.90;;;;;;5091966;28;20028;-49
2022/08/02 00:36:05;;;;;;;8.55;5.63;;;22.80;99.90;;;;;;5072369;28;20039;-50
2022/08/02 00:38:31;;;;;;;6.60;5.90;;;;;;;;;;5091352;28;20035;-49
2022/08/02 00:40:56;;;;;;;9.35;6.25;;;22.80;99.90;;;;;;5091606;28;20016;-53
2022/08/02 00:43:22;;;;;;;7.93;6.20;;;22.80;99.90;;;;;;5055824;28;20029;-49
2022/08/02 00:45:48;;;;;;;10.80;7.00;;;22.80;99.90;;;;;;5090804;28;20055;-45
2022/08/02 00:48:14;;;;;;;8.30;6.95;;;22.70;99.90;;;;;;5056299;28;20078;-50
2022/08/02 00:50:40;;;;;;;10.60;7.22;;;22.60;99.90;;;;;;5091656;28;20097;-49
2022/08/02 00:53:10;;;;;;;15.20;9.25;;;22.60;99.90;;;;;;5091348;28;20539;-50
2022/08/02 00:55:36;;;;;;;13.02;7.80;;;22.60;99.90;;;;;;5092280;28;20028;-52
2022/08/02 00:58:03;;;;;;;15.50;8.55;;;22.60;99.90;;;;;;5091870;28;20103;-48
2022/08/02 01:00:28;;;;;;;9.60;8.20;;;22.60;99.90;;;;;;5055913;28;20148;-49
2022/08/02 01:02:54;;;;;;;8.77;7.68;;;22.50;99.90;;;;;;5091254;28;20518;-48
2022/08/02 01:05:20;;;;;;;13.07;9.13;;;22.50;99.90;;;;;;5091443;28;20036;-47
2022/08/02 01:07:46;;;;;;;10.50;8.30;;;;;;;;;;5091246;28;20044;-48
2022/08/02 01:10:12;;;;;;;9.80;8.27;;;;;;;;;;5092382;28;20035;-46
2022/08/02 01:12:38;;;;;;;11.70;9.05;;;22.20;99.90;;;;;;5092098;28;20478;-50
2022/08/02 01:15:11;;;;;;;12.80;9.27;;;22.20;99.90;;;;;;5092363;28;20089;-51
2022/08/02 01:18:13;;;;;;;12.65;8.55;;;22.20;99.90;;;;;;5092224;28;20028;-52
2022/08/02 01:20:44;;;;;;;10.20;8.73;;;22.10;99.90;;;;;;5043732;28;20080;-52
2022/08/02 01:23:52;;;;;;;11.40;8.05;;;22.10;99.90;;;;;;5049522;28;20032;-46
2022/08/02 01:26:45;;;;;;;12.80;8.27;;;22.10;99.90;;;;;;5028215;28;20037;-51
2022/08/02 01:29:30;;;;;;;11.93;8.90;;;22.00;99.90;;;;;;5026293;28;20176;-48
2022/08/02 01:32:04;;;;;;;14.05;8.45;;;21.90;99.90;;;;;;5028184;28;20116;-49
2022/08/02 01:34:41;;;;;;;13.57;9.10;;;21.90;99.90;;;;;;5027934;28;20026;-52
2022/08/02 01:37:21;;;;;;;11.07;8.48;;;21.80;99.90;;;;;;5027922;28;20064;-49
2022/08/02 01:39:56;;;;;;;9.05;8.15;;;21.80;99.90;;;;;;5011884;28;20509;-49
2022/08/02 01:42:24;;;;;;;12.50;8.57;;;21.80;99.90;;;;;;5027368;28;20588;-48
2022/08/02 01:44:53;;;;;;;10.65;8.32;;;21.80;99.90;;;;;;5028357;28;20045;-50
2022/08/02 01:47:27;;;;;;;10.40;7.90;;;21.80;99.90;;;;;;5027431;28;20026;-50
2022/08/02 01:49:56;;;;;;;11.80;8.13;;;21.70;99.90;;;;;;5027927;28;20057;-47
2022/08/02 01:52:26;;;;;;;11.35;8.30;;;21.70;99.90;;;;;;5016303;28;20516;-49
2022/08/02 01:55:12;;;;;;;10.45;7.55;;;21.70;99.90;;;;;;5028042;28;20069;-49
2022/08/02 01:57:45;;;;;;;8.88;7.63;;;21.70;99.90;;;;;;5027439;28;20429;-48
2022/08/02 02:00:12;;;;;;;11.05;7.80;;;21.70;99.90;;;;;;5031368;28;20053;-48
2022/08/02 02:02:40;;;;;;;9.85;7.22;;;;;;;;;;5011754;28;20047;-47
2022/08/02 02:05:10;;;;;;;9.90;6.70;;;;;;;;;;5095479;28;20020;-49
2022/08/02 02:07:37;;;;;;;10.90;7.55;;;;;;;;;;5095382;28;20060;-50
2022/08/02 02:10:04;;;;;;;8.75;7.18;;;;;;;;;;5095394;28;20040;-49
2022/08/02 02:12:31;;;;;;;9.60;7.30;;;;;;;;;;5042605;28;20547;-48
2022/08/02 02:14:58;;;;;;;11.45;7.57;;;21.30;99.90;;;;;;5095314;28;20028;-51
2022/08/02 02:17:27;;;;;;;9.77;6.80;;;21.30;99.90;;;;;;5094900;28;20030;-48
2022/08/02 02:19:54;;;;;;;8.52;7.30;;;21.40;99.90;;;;;;5095129;28;20032;-49
2022/08/02 02:22:20;;;;;;;12.25;6.97;;;21.20;99.90;;;;;;5094784;28;20066;-50
2022/08/02 02:24:46;;;;;;;9.77;7.43;;;21.10;99.90;;;;;;5095365;28;20056;-48
2022/08/02 02:27:13;;;;;;;9.25;7.03;;;21.30;99.90;;;;;;5074960;28;20505;-49
2022/08/02 02:29:43;;;;;;;8.48;7.32;;;21.30;99.90;;;;;;5042032;28;20063;-50
2022/08/02 02:32:11;;;;;;;13.45;8.30;;;21.30;99.90;;;;;;5058390;28;20391;-46
2022/08/02 02:34:40;;;;;;;11.45;8.00;;;21.30;99.90;;;;;;5077002;28;20584;-50
2022/08/02 02:37:20;;;;;;;8.85;7.95;;;21.30;99.90;;;;;;5091591;28;20073;-46
2022/08/02 02:39:49;;;;;;;9.23;8.30;;;21.20;99.90;;;;;;5094445;28;20037;-47
2022/08/02 02:42:18;;;;;;;9.10;7.57;;;21.20;99.90;;;;;;5094672;28;20024;-48
2022/08/02 02:44:45;;;;;;;10.55;7.82;;;21.20;99.90;;;;;;5057870;28;20150;-49
2022/08/02 02:47:15;;;;;;;9.88;8.20;;;21.10;99.90;;;;;;5094621;28;20468;-48
2022/08/02 02:49:43;;;;;;;12.90;8.35;;;21.00;99.90;;;;;;5094278;28;20069;-48
2022/08/02 02:52:10;;;;;;;10.27;7.72;;;21.10;99.90;;;;;;5094682;28;20035;-49
2022/08/02 02:54:37;;;;;;;12.80;7.82;;;21.00;99.90;;;;;;5094180;28;20043;-50
2022/08/02 02:57:05;;;;;;;10.07;7.70;;;20.90;99.90;;;;;;5095081;28;20099;-50
2022/08/02 02:59:35;;;;;;;13.65;8.38;;;20.90;99.90;;;;;;5093675;28;20058;-52
2022/08/02 03:02:03;;;;;;;14.98;8.13;;;20.90;99.90;;;;;;5094465;28;20028;-48
2022/08/02 03:04:30;;;;;;;10.77;7.90;;;21.00;99.90;;;;;;5093903;28;20028;-49
2022/08/02 03:06:56;;;;;;;10.57;8.27;;;20.90;99.90;;;;;;5091484;28;20036;-50
2022/08/02 03:09:22;;;;;;;10.70;8.50;;;21.00;99.90;;;;;;5053245;28;20483;-49
2022/08/02 03:11:49;;;;;;;8.70;7.40;;;21.00;99.90;;;;;;5090431;28;20032;-49
2022/08/02 03:14:15;;;;;;;9.85;7.93;;;21.00;99.90;;;;;;5091700;28;20036;-50
2022/08/02 03:16:45;;;;;;;9.18;8.18;;;21.00;99.90;;;;;;5093211;28;20113;-48
2022/08/02 03:19:11;;;;;;;10.35;8.55;;;21.00;99.90;;;;;;5093033;28;20509;-50
2022/08/02 03:21:37;;;;;;;10.30;8.20;;;21.00;99.90;;;;;;5040114;28;20035;-48
2022/08/02 03:24:04;;;;;;;13.82;8.27;;;20.90;99.90;;;;;;5092661;28;20036;-48
2022/08/02 03:26:30;;;;;;;10.52;8.13;;;20.80;99.90;;;;;;5056793;28;20036;-51
2022/08/02 03:28:55;;;;;;;9.38;7.90;;;20.70;99.90;;;;;;5091290;28;20030;-48
2022/08/02 03:31:21;;;;;;;9.13;7.68;;;20.80;99.90;;;;;;5089094;28;20085;-53
2022/08/02 03:33:47;;;;;;;10.75;7.97;;;20.80;99.90;;;;;;5073452;28;20050;-46
2022/08/02 03:36:16;;;;;;;13.07;8.50;;;20.80;99.90;;;;;;5092600;28;20073;-50
2022/08/02 03:38:43;;;;;;;12.55;8.13;;;20.80;99.90;;;;;;5073306;28;20047;-53
2022/08/02 03:41:12;;;;;;;8.50;6.75;;;20.80;99.90;;;;;;5091853;28;20016;-49
2022/08/02 03:43:39;;;;;;;8.70;7.82;;;20.90;99.90;;;;;;5092192;28;20024;-50
2022/08/02 03:46:08;;;;;;;7.55;6.72;;;21.00;99.90;;;;;;5039794;28;20122;-53
2022/08/02 03:48:35;;;;;;;13.82;7.25;;;21.00;99.90;;;;;;5051831;28;20131;-48
2022/08/02 03:51:01;;;;;;;10.75;6.95;;;21.00;99.90;;;;;;5092223;28;20027;-50
2022/08/02 03:53:27;;;;;;;11.15;7.47;;;21.00;99.90;;;;;;5092504;28;20035;-49
2022/08/02 03:55:53;;;;;;;8.65;7.75;;;21.00;99.90;;;;;;5090663;28;20024;-49
2022/08/02 03:58:23;;;;;;;8.00;7.20;;;21.00;99.90;;;;;;5056341;28;20086;-50
2022/08/02 04:00:50;;;;;;;7.93;7.13;;;21.10;99.90;;;;;;5089005;28;20070;-47
2022/08/02 04:03:16;;;;;;;9.05;7.10;;;21.20;99.90;;;;;;5090964;28;20036;-47
2022/08/02 04:05:42;;;;;;;9.80;7.78;;;21.10;99.90;;;;;;5056659;28;20051;-50
2022/08/02 04:08:08;;;;;;;8.93;7.18;;;21.20;99.90;;;;;;5042235;28;20040;-50
2022/08/02 04:13:24;;;;;;;8.70;7.03;;;21.30;99.90;;;;;;5089869;28;20525;-49
2022/08/02 04:15:54;;;;;;;14.52;8.02;;;21.20;99.90;;;;;;5088287;28;20768;-50
2022/08/02 04:18:28;;;;;;;12.10;7.85;;;21.20;99.90;;;;;;5072685;28;20089;-49
2022/08/02 04:20:55;;;;;;;11.30;7.43;;;21.20;99.90;;;;;;5087856;28;20028;-48
2022/08/02 04:23:23;;;;;;;11.57;7.40;;;21.40;99.90;;;;;;5088387;28;20036;-51
2022/08/02 04:25:49;;;;;;;10.50;7.30;;;21.50;99.90;;;;;;5088083;28;20498;-50
2022/08/02 04:28:15;;;;;;;11.15;6.97;;;21.40;99.90;;;;;;5054176;28;20075;-51
2022/08/02 04:30:42;;;;;;;11.65;7.22;;;21.40;99.90;;;;;;5091893;28;20115;-51
2022/08/02 04:33:08;;;;;;;8.23;7.25;;;21.50;99.90;;;;;;5090706;28;20024;-52
2022/08/02 04:35:34;;;;;;;10.25;6.97;;;21.40;99.90;;;;;;5090051;28;20022;-52
2022/08/02 04:38:00;;;;;;;8.07;6.90;;;21.40;99.90;;;;;;5072951;28;20089;-49
2022/08/02 04:40:26;;;;;;;11.38;7.10;;;21.30;99.90;;;;;;5089265;28;20028;-49
2022/08/02 04:42:52;;;;;;;21.73;8.20;;;21.20;99.90;;;;;;5068937;28;20117;-50
2022/08/02 04:45:20;;;;;;;9.13;6.20;;;21.30;99.90;;;;;;5056417;28;20044;-51
2022/08/02 04:47:46;;;;;;;11.07;6.65;;;21.40;99.90;;;;;;5085941;28;20601;-50
2022/08/02 04:50:11;;;;;;;11.73;5.80;;;21.60;99.90;;;;;;5089943;28;20064;-47
2022/08/02 04:52:37;;;;;;;7.75;6.18;;;21.50;99.90;;;;;;5090723;28;20059;-48
2022/08/02 04:55:03;;;;;;;9.30;6.22;;;21.50;99.90;;;;;;5087748;28;20050;-49
2022/08/02 05:00:14;;;;;;;12.27;6.53;;;21.50;99.90;;;;;;5084855;28;20130;-50
2022/08/02 05:02:40;;;;;;;8.50;5.90;;;21.50;99.90;;;;;;5037039;28;20403;-50
2022/08/02 05:05:06;;;;;;;8.77;6.22;;;21.60;99.90;;;;;;5091387;28;20024;-50
2022/08/02 05:07:32;;;;;;;9.68;6.22;;;21.80;99.90;;;;;;5088952;28;20364;-50
2022/08/02 05:09:57;;;;;;;9.00;6.40;;;21.90;99.90;;;;;;5088395;28;20020;-53
2022/08/02 05:12:24;;;;;;;7.90;6.25;;;21.90;99.90;;;;;;5062403;28;20455;-54
2022/08/02 05:14:50;;;;;;;6.72;6.03;;;22.00;99.90;;;;;;5089200;28;20024;-47
2022/08/02 05:17:16;;;;;;;9.13;6.28;;;22.10;99.90;;;;;;5092210;28;20541;-54
2022/08/02 05:19:42;;;;;;;8.40;6.10;;;22.20;99.90;;;;;;5091691;28;20472;-48
2022/08/02 05:22:07;;;;;;;6.20;5.15;;;22.30;99.90;;;;;;5088959;28;20460;-49
2022/08/02 05:24:33;;;;;;;8.85;5.55;;;22.40;99.90;;;;;;5005318;28;20051;-49
2022/08/02 05:26:59;;;;;;;8.25;5.20;;;22.40;99.90;;;;;;5092489;28;20031;-50
2022/08/02 05:29:25;;;;;;;5.63;4.25;;;22.50;99.90;;;;;;5091294;28;20036;-50
2022/08/02 05:31:51;;;;;;;8.27;5.00;;;22.60;99.90;;;;;;5092820;28;20112;-53
2022/08/02 05:34:16;;;;;;;7.10;5.10;;;22.90;99.90;;;;;;5094452;28;20038;-48
2022/08/02 05:36:42;;;;;;;6.63;4.93;;;22.80;99.90;;;;;;5095062;28;20028;-49
2022/08/02 05:39:08;;;;;;;8.57;4.70;;;22.90;99.90;;;;;;5050942;28;20040;-53
2022/08/02 05:41:34;;;;;;;7.32;4.97;;;23.00;99.90;;;;;;5095496;28;20032;-53
2022/08/02 05:44:00;;;;;;;8.70;4.63;;;23.00;99.90;;;;;;5095004;28;20108;-51
2022/08/02 05:46:26;;;;;;;5.88;4.70;;;22.90;99.90;;;;;;5096037;28;20035;-49
2022/08/02 05:48:52;;;;;;;6.97;4.78;;;22.90;99.90;;;;;;5095276;28;20036;-49
2022/08/02 05:51:27;;;;;;;7.82;4.55;;;23.20;99.90;;;;;;5095646;28;20544;-52
2022/08/02 05:54:06;;;;;;;6.95;4.47;;;23.30;99.90;;;;;;5052196;28;20041;-52
2022/08/02 05:56:50;;;;;;;5.28;4.55;;;23.40;99.90;;;;;;5053280;28;20535;-54
2022/08/02 05:59:42;;;;;;;8.05;4.07;;;23.60;99.90;;;;;;5051715;28;20045;-57
2022/08/02 06:02:28;;;;;;;6.25;4.15;;;23.60;99.90;;;;;;4993102;28;20122;-52
2022/08/02 06:05:03;;;;;;;11.05;5.43;;;23.70;99.90;;;;;;4989785;28;20050;-50
2022/08/02 06:07:33;;;;;;;5.57;4.00;;;23.90;99.90;;;;;;4993433;28;20060;-50
2022/08/02 06:10:03;;;;;;;7.68;4.07;;;23.90;99.90;;;;;;5012279;28;20038;-51
2022/08/02 06:12:31;;;;;;;6.68;4.15;;;24.00;99.90;;;;;;5012031;28;20034;-50
2022/08/02 06:14:58;;;;;;;5.82;3.85;;;24.20;99.90;;;;;;5011240;28;20092;-51
2022/08/02 06:17:25;;;;;;;9.82;4.20;;;24.30;99.90;;;;;;5012944;28;20026;-53
2022/08/02 06:19:56;;;;;;;6.50;4.32;;;24.40;99.90;;;;;;5033712;28;20080;-52
2022/08/02 06:22:25;;;;;;;5.45;4.10;;;24.60;99.90;;;;;;5036174;28;20044;-49
2022/08/02 06:24:51;;;;;;;6.88;4.05;;;;;;;;;;5036652;28;20053;-48
2022/08/02 06:27:18;;;;;;;7.28;4.07;;;;;;;;;;5031740;28;20034;-51
2022/08/02 06:29:47;;;;;;;6.07;4.28;;;24.70;99.90;;;;;;5036026;28;20052;-49
2022/08/02 06:32:18;;;;;;;5.97;4.20;;;24.80;99.90;;;;;;5033601;28;20056;-54
2022/08/02 06:34:44;;;;;;;5.45;4.00;;;;;;;;;;5037475;28;20525;-50
2022/08/02 06:37:18;;;;;;;5.55;3.88;;;25.00;99.90;;;;;;5033548;28;20030;-55
2022/08/02 06:39:48;;;;;;;7.53;4.18;;;25.00;99.90;;;;;;5077891;28;20506;-49
2022/08/02 06:42:20;;;;;;;6.53;4.28;;;25.00;99.90;;;;;;5092959;28;20127;-50
2022/08/02 06:44:46;;;;;;;5.22;3.92;;;25.10;99.90;;;;;;5093539;28;20655;-50
2022/08/02 06:47:12;;;;;;;6.97;4.50;;;25.20;99.90;;;;;;5092887;28;20036;-48
2022/08/02 06:49:38;;;;;;;4.10;3.50;;;25.30;99.90;;;;;;5093131;28;20651;-51
2022/08/02 06:52:04;;;;;;;6.80;4.57;;;;;;;;;;5092807;28;20085;-53
2022/08/02 06:54:30;;;;;;;5.38;4.47;;;25.40;99.90;;;;;;5073286;28;20043;-51
2022/08/02 06:56:56;;;;;;;6.30;3.80;;;;;;;;;;5090870;28;20012;-50
2022/08/02 06:59:22;;;;;;;8.30;4.38;;;;;;;;;;5091621;28;20047;-49
2022/08/02 07:01:48;;;;;;;7.40;3.72;;;25.90;99.90;;;;;;5093292;28;20024;-50
2022/08/02 07:04:14;;;;;;;4.70;3.97;;;25.80;99.90;;;;;;5055826;28;20108;-49
2022/08/02 07:06:39;;;;;;;6.78;4.20;;;25.90;99.90;;;;;;5055455;28;20036;-49
2022/08/02 07:09:06;;;;;;;5.18;4.15;;;26.10;99.90;;;;;;5056418;28;20077;-52
2022/08/02 07:11:31;;;;;;;4.93;4.07;;;26.20;99.90;;;;;;5007747;28;20396;-54
2022/08/02 07:13:57;;;;;;;6.20;4.05;;;26.40;99.90;;;;;;5056463;28;20031;-50
2022/08/02 07:16:23;;;;;;;7.57;4.13;;;26.40;99.90;;;;;;5092093;28;20098;-51
2022/08/02 07:18:49;;;;;;;6.28;3.92;;;26.60;99.90;;;;;;5091375;28;20040;-52
2022/08/02 07:21:14;;;;;;;8.45;5.20;;;26.70;99.90;;;;;;5091913;28;20036;-50
2022/08/02 07:23:40;;;;;;;6.90;4.13;;;26.80;99.90;;;;;;5057025;28;20065;-50
2022/08/02 07:26:06;;;;;;;8.02;3.45;;;;;;;;;;5039720;28;20068;-49
2022/08/02 07:28:32;;;;;;;7.38;3.88;;;27.20;99.90;;;;;;5092378;28;20024;-55
2022/08/02 07:30:58;;;;;;;5.25;3.75;;;27.30;99.90;;;;;;5041097;28;20123;-53
2022/08/02 07:33:26;;;;;;;8.75;3.65;;;;;;;;;;5056211;28;20051;-55
2022/08/02 07:35:52;;;;;;;10.45;4.07;;;27.60;99.90;;;;;;5091872;28;20024;-53
2022/08/02 07:38:21;;;;;;;7.18;3.42;;;;;;;;;;5091353;28;20035;-54
2022/08/02 07:40:47;;;;;;;5.90;3.30;;;;;;;;;;5091611;28;20093;-54
2022/08/02 07:43:14;;;;;;;7.35;3.40;;;;;;;;;;5039311;28;20052;-53
2022/08/02 07:45:40;;;;;;;7.47;3.47;;;28.10;99.90;;;;;;5057026;28;20119;-53
2022/08/02 07:48:07;;;;;;;10.43;3.33;;;;;;;;;;5091810;28;20028;-53
2022/08/02 07:50:33;;;;;;;6.03;3.05;;;;;;;;;;5092081;28;20044;-53
2022/08/02 07:52:59;;;;;;;9.27;3.45;;;;;;;;;;5090962;28;20054;-52
2022/08/02 07:55:25;;;;;;;9.93;3.00;;;;;;;;;;5021639;28;20403;-50
2022/08/02 07:57:52;;;;;;;8.80;2.67;;;;;;;;;;5053397;28;20032;-49
2022/08/02 08:00:18;;;;;;;8.32;3.30;;;28.80;99.90;;;;;;5091184;28;20092;-53
2022/08/02 08:02:45;;;;;;;9.77;2.63;;;;;;;;;;5091376;28;20058;-52
2022/08/02 08:05:11;;;;;;;6.03;2.97;;;;;;;;;;5090890;28;20028;-48
2022/08/02 08:07:37;;;;;;;10.50;3.00;;;;;;;;;;5091886;28;20028;-48
2022/08/02 08:10:04;;;;;;;8.05;3.30;;;;;;;;;;5092684;28;20051;-50
2022/08/02 08:12:31;;;;;;;5.03;2.30;;;;;;;;;;5092164;28;20028;-55
2022/08/02 08:14:57;;;;;;;6.00;2.53;;;;;;;;;;5057867;28;20044;-54
2022/08/02 08:17:23;;;;;;;5.00;3.42;;;29.60;99.90;;;;;;5092577;28;20035;-52
2022/08/02 08:19:49;;;;;;;9.00;2.88;;;29.80;96.60;;;;;;5092669;28;20028;-53
2022/08/02 08:22:15;;;;;;;8.27;2.53;;;;;;;;;;5055423;28;20031;-48
2022/08/02 08:24:41;;;;;;;6.75;2.58;;;;;;;;;;5073866;28;20036;-52
2022/08/02 08:27:13;;;;;;;4.22;2.10;;;;;;;;;;5092650;28;20035;-49
2022/08/02 08:29:40;;;;;;;5.90;1.83;;;;;;;;;;5092405;28;20039;-48
2022/08/02 08:32:07;;;;;;;8.00;2.03;;;;;;;;;;5085042;28;20033;-51
2022/08/02 08:34:33;;;;;;;5.75;1.85;;;30.40;92.70;;;;;;5092455;28;20028;-50
2022/08/02 08:37:01;;;;;;;4.40;2.05;;;;;;;;;;5057248;28;20139;-49
2022/08/02 08:39:27;;;;;;;6.18;2.30;;;;;;;;;;5088170;28;20050;-50
2022/08/02 08:41:53;;;;;;;3.33;1.83;;;;;;;;;;5092163;28;20032;-51
2022/08/02 08:44:19;;;;;;;2.47;1.70;;;;;;;;;;5091546;28;20085;-53
2022/08/02 08:46:47;;;;;;;5.90;2.15;;;;;;;;;;5092701;28;20043;-47
2022/08/02 08:49:16;;;;;;;7.72;1.80;;;;;;;;;;5092495;28;20023;-52
2022/08/02 08:51:43;;;;;;;5.80;1.70;;;;;;;;;;5090437;28;20452;-52
2022/08/02 08:54:12;;;;;;;5.00;2.35;;;;;;;;;;5087748;28;20047;-49
2022/08/02 08:56:39;;;;;;;5.07;2.10;;;;;;;;;;5047737;28;20028;-51
2022/08/02 08:59:05;;;;;;;4.20;1.90;;;;;;;;;;5068856;28;20054;-49
2022/08/02 09:01:31;;;;;;;2.65;1.80;;;;;;;;;;5085803;28;20031;-53
2022/08/02 09:03:58;;;;;;;3.78;1.88;;;;;;;;;;5084336;28;20020;-52
2022/08/02 09:06:24;;;;;;;5.50;1.83;;;;;;;;;;5088389;28;20027;-49
2022/08/02 09:08:50;;;;;;;5.43;1.88;;;;;;;;;;5082858;28;20097;-50
2022/08/02 09:11:17;;;;;;;5.85;2.30;;;;;;;;;;5069802;28;20044;-53
2022/08/02 09:13:54;;;;;;;4.00;1.70;;;32.00;95.70;;;;;;5090263;28;20031;-52
2022/08/02 09:16:35;;;;;;;3.42;1.90;;;32.10;86.00;;;;;;5086968;28;20499;-52
2022/08/02 09:19:19;;;;;;;2.70;1.40;;;32.20;84.70;;;;;;5081654;28;20021;-49
2022/08/02 09:21:45;;;;;;;3.70;1.60;;;32.00;85.60;;;;;;5070046;28;20032;-50
2022/08/02 09:24:16;;;;;;;1.50;1.40;;;31.70;84.60;;;;;;5084482;28;20017;-49
2022/08/02 09:26:42;;;;;;;3.70;1.77;;;31.60;84.50;;;;;;5087275;28;20495;-52
2022/08/02 09:29:08;;;;;;;3.13;1.65;;;31.90;85.40;;;;;;5055583;28;20036;-54
2022/08/02 09:31:34;;;;;;;3.92;2.00;;;31.90;84.90;;;;;;5091513;28;20383;-54
2022/08/02 09:34:00;;;;;;;2.70;1.58;;;32.30;84.60;;;;;;5088861;28;20036;-54
2022/08/02 09:36:27;;;;;;;4.40;1.95;;;;;;;;;;5091512;28;20055;-51
2022/08/02 09:39:02;;;;;;;4.03;1.98;;;32.90;92.20;;;;;;5052245;28;20093;-48
2022/08/02 09:41:33;;;;;;;3.45;2.35;;;33.20;91.80;;;;;;5090918;28;20663;-55
2022/08/02 09:44:01;;;;;;;3.20;1.80;;;;;;;;;;5092220;28;20118;-52
2022/08/02 09:46:29;;;;;;;3.05;1.92;;;;;;;;;;5091362;28;20036;-55
2022/08/02 09:48:54;;;;;;;2.67;1.92;;;33.40;81.10;;;;;;5088654;28;20115;-54
2022/08/02 09:51:24;;;;;;;3.88;2.00;;;33.30;82.60;;;;;;5055962;28;20123;-51
2022/08/02 09:53:53;;;;;;;2.75;1.73;;;33.00;82.20;;;;;;5091546;28;20028;-49
2022/08/02 09:56:20;;;;;;;3.00;2.05;;;33.00;82.30;;;;;;5055722;28;20043;-48
2022/08/02 09:58:46;;;;;;;6.45;2.25;;;33.20;83.10;;;;;;5091158;28;20032;-48
2022/08/02 10:01:12;;;;;;;5.80;1.90;;;33.50;82.60;;;;;;5054123;28;20399;-52
2022/08/02 10:03:53;;;;;;;2.95;1.88;;;33.80;81.10;;;;;;5070766;28;20442;-53
2022/08/02 10:06:19;;;;;;;3.55;2.20;;;34.00;81.90;;;;;;5091517;28;20048;-51
2022/08/02 10:08:45;;;;;;;2.95;2.00;;;34.00;81.80;;;;;;5090893;28;20452;-51
2022/08/02 10:11:11;;;;;;;2.85;2.00;;;33.50;81.10;;;;;;5072564;28;20028;-52
2022/08/02 10:13:37;;;;;;;2.83;2.05;;;33.70;80.60;;;;;;5090934;28;20028;-53
2022/08/02 10:16:05;;;;;;;6.22;1.90;;;33.90;80.70;;;;;;5062135;28;20070;-52
2022/08/02 10:18:31;;;;;;;3.40;2.50;;;33.70;81.30;;;;;;5023689;28;20044;-50
2022/08/02 10:21:00;;;;;;;4.22;1.80;;;34.00;81.30;;;;;;5095946;28;20380;-50
2022/08/02 10:23:28;;;;;;;4.32;2.00;;;33.90;80.70;;;;;;5095380;28;20112;-53
2022/08/02 10:25:55;;;;;;;2.88;1.98;;;33.80;81.00;;;;;;5094688;28;20031;-47
2022/08/02 10:28:31;;;;;;;2.78;1.90;;;33.80;79.90;;;;;;5054596;28;20048;-49
2022/08/02 10:31:00;;;;;;;4.47;1.80;;;34.10;79.80;;;;;;5090247;28;20035;-48
2022/08/02 10:33:27;;;;;;;2.50;1.90;;;33.80;82.60;;;;;;5096141;28;20028;-48
2022/08/02 10:35:58;;;;;;;4.70;2.13;;;34.10;80.20;;;;;;5052971;28;20034;-52
2022/08/02 10:38:24;;;;;;;3.58;2.13;;;34.10;79.70;;;;;;5093197;28;20032;-44
2022/08/02 10:40:53;;;;;;;2.40;1.80;;;34.10;80.80;;;;;;5092942;28;20044;-52
2022/08/02 10:43:31;;;;;;;4.82;1.70;;;;;;;;;;5054248;28;20500;-47
2022/08/02 10:46:16;;;;;;;2.20;1.70;;;;;;;;;;5094611;28;20034;-49
2022/08/02 10:49:02;;;;;;;6.53;2.10;;;;;;;;;;5094094;28;20418;-49
2022/08/02 10:51:47;;;;;;;3.65;1.70;;;;;;;;;;5035321;28;20071;-49
2022/08/02 10:54:19;;;;;;;5.53;2.08;;;;;;;;;;5094561;28;20103;-50
2022/08/02 10:56:46;;;;;;;3.47;1.90;;;;;;;;;;5090940;28;20039;-52
2022/08/02 10:59:25;;;;;;;2.22;1.90;;;;;;;;;;5091497;28;20502;-49
2022/08/02 11:01:59;;;;;;;3.55;2.00;;;;;;;;;;5068506;28;20044;-50
2022/08/02 11:04:26;;;;;;;3.70;2.20;;;;;;;;;;5087001;28;20035;-53
2022/08/02 11:07:07;;;;;;;4.15;1.98;;;;;;;;;;5091968;28;20521;-48
2022/08/02 11:09:33;;;;;;;3.10;1.95;;;;;;;;;;5089951;28;20055;-49
2022/08/02 11:12:01;;;;;;;3.92;1.77;;;;;;;;;;5094263;28;20032;-49
2022/08/02 11:14:28;;;;;;;4.07;1.92;;;;;;;;;;5094316;28;20034;-49
2022/08/02 11:16:57;;;;;;;3.58;1.85;;;;;;;;;;5093504;28;20431;-50
2022/08/02 11:19:24;;;;;;;7.35;2.10;;;;;;;;;;5093280;28;20071;-49
2022/08/02 11:22:03;;;;;;;2.55;1.88;;;;;;;;;;5092635;28;20039;-52
2022/08/02 11:24:31;;;;;;;5.55;1.88;;;;;;;;;;5071839;28;20036;-49
2022/08/02 11:26:58;;;;;;;5.65;1.88;;;;;;;;;;5093454;28;20031;-47
2022/08/02 11:29:35;;;;;;;4.15;1.95;;;;;;;;;;5041766;28;20036;-48
2022/08/02 11:32:01;;;;;;;2.33;1.75;;;;;;;;;;5093036;28;20088;-48
2022/08/02 11:34:28;;;;;;;2.45;1.63;;;;;;;;;;5093652;28;20057;-58
2022/08/02 11:36:54;;;;;;;3.13;1.90;;;;;;;;;;5092672;28;20054;-52
2022/08/02 11:39:21;;;;;;;3.97;1.90;;;;;;;;;;5089020;28;20040;-54
2022/08/02 11:41:55;;;;;;;3.63;1.80;;;;;;;;;;5092831;28;20071;-50
2022/08/02 11:44:21;;;;;;;2.30;1.70;;;;;;;;;;5091769;28;20051;-55
2022/08/02 11:46:54;;;;;;;6.97;2.00;;;;;;;;;;5093153;28;20020;-50
2022/08/02 11:49:20;;;;;;;2.47;1.80;;;;;;;;;;5093485;28;20054;-55
2022/08/02 11:51:50;;;;;;;4.07;2.15;;;;;;;;;;5091798;28;20048;-50
2022/08/02 11:54:28;;;;;;;5.47;1.88;;;37.00;94.40;;;;;;5091426;28;20031;-52
2022/08/02 11:56:55;;;;;;;3.72;1.58;;;;;;;;;;5093299;28;20012;-50
2022/08/02 11:59:21;;;;;;;2.03;1.65;;;;;;;;;;5093156;28;20040;-55
2022/08/02 12:01:47;;;;;;;3.70;1.85;;;;;;;;;;5092245;28;20107;-47
2022/08/02 12:04:18;;;;;;;2.75;1.77;;;;;;;;;;5093190;28;20543;-56
2022/08/02 12:06:44;;;;;;;2.78;2.10;;;;;;;;;;5093095;28;20063;-50
2022/08/02 12:09:12;;;;;;;4.90;1.90;;;;;;;;;;5092674;28;20040;-51
2022/08/02 12:11:38;;;;;;;3.35;1.70;;;;;;;;;;5092405;28;20377;-53
2022/08/02 12:14:05;;;;;;;5.10;1.80;;;;;;;;;;5092246;28;20020;-60
2022/08/02 12:19:25;;;;;;;6.30;1.88;;;;;;;;;;5092372;28;20081;-50
2022/08/02 12:22:10;;;;;;;3.25;1.92;;;;;;;;;;5099359;28;20027;-56
2022/08/02 12:24:36;;;;;;;3.17;1.90;;;;;;;;;;5092858;28;20055;-54
2022/08/02 12:27:02;;;;;;;3.38;1.80;;;;;;;;;;5090091;28;20040;-50
2022/08/02 12:29:32;;;;;;;3.63;2.13;;;;;;;;;;5092153;28;20122;-57
2022/08/02 12:31:59;;;;;;;4.20;2.10;;;;;;;;;;5091985;28;20112;-52
2022/08/02 12:34:29;;;;;;;5.88;2.28;;;;;;;;;;5092143;28;20111;-49
2022/08/02 12:36:58;;;;;;;5.35;1.77;;;;;;;;;;5091179;28;20089;-50
2022/08/02 12:39:43;;;;;;;3.08;1.77;;;;;;;;;;5090323;28;20066;-49
2022/08/02 12:42:11;;;;;;;3.95;1.90;;;;;;;;;;5090401;28;20379;-53
2022/08/02 12:44:57;;;;;;;3.28;1.88;;;;;;;;;;5072673;28;20036;-55
2022/08/02 12:47:23;;;;;;;3.42;1.85;;;;;;;;;;5087701;28;20032;-53
2022/08/02 12:50:08;;;;;;;2.88;1.80;;;;;;;;;;5091131;28;20035;-51
2022/08/02 12:52:34;;;;;;;3.47;1.80;;;;;;;;;;5089649;28;20028;-49
2022/08/02 12:55:00;;;;;;;4.07;1.75;;;;;;;;;;5038943;28;20040;-50
2022/08/02 12:57:26;;;;;;;2.42;1.85;;;;;;;;;;5091021;28;20165;-48
2022/08/02 12:59:53;;;;;;;4.88;2.63;;;;;;;;;;5090838;28;20036;-53
2022/08/02 13:02:19;;;;;;;3.58;2.08;;;;;;;;;;5067206;28;20410;-55
2022/08/02 13:04:45;;;;;;;3.55;1.75;;;;;;;;;;5087589;28;20107;-55
2022/08/02 13:07:11;;;;;;;3.38;1.98;;;;;;;;;;5090268;28;20495;-56
2022/08/02 13:09:38;;;;;;;3.53;1.80;;;;;;;;;;5089655;28;20052;-53
2022/08/02 13:12:07;;;;;;;4.45;2.05;;;;;;;;;;5024681;28;20407;-51
2022/08/02 13:14:33;;;;;;;4.03;2.10;;;;;;;;;;5089794;28;20032;-59
2022/08/02 13:16:59;;;;;;;2.95;1.95;;;;;;;;;;5091023;28;20032;-53
2022/08/02 13:19:25;;;;;;;2.78;1.75;;;;;;;;;;5090839;28;20032;-52
2022/08/02 13:21:52;;;;;;;2.78;1.83;;;;;;;;;;5091705;28;20039;-53
2022/08/02 13:24:19;;;;;;;1.90;1.42;;;;;;;;;;5036481;28;20048;-48
2022/08/02 13:26:45;;;;;;;3.75;1.90;;;;;;;;;;5090964;28;20032;-50
2022/08/02 13:29:12;;;;;;;4.57;1.90;;;;;;;;;;5090896;28;20407;-51
2022/08/02 13:31:38;;;;;;;3.03;1.77;;;;;;;;;;5091489;28;20031;-52
2022/08/02 13:34:08;;;;;;;3.05;1.63;;;;;;;;;;5091413;28;20024;-52
2022/08/02 13:36:35;;;;;;;2.42;1.48;;;;;;;;;;5090797;28;20391;-50
2022/08/02 13:39:03;;;;;;;3.35;1.80;;;;;;;;;;5089826;28;20043;-51
2022/08/02 13:41:30;;;;;;;2.75;1.83;;;36.70;74.90;;;;;;5090745;28;20485;-51